Time;durP1;ratioP1;P1;durP2;ratioP2;P2;SDS_P1;SDS_P2;PMS_P1;PMS_P2;Temp;Humidity;BMP_temperature;BMP_pressure;BME280_temperature;BME280_humidity;BME280_pressure;Samples;Min_cycle;Max_cycle;Signal;HPM_P1;HPM_P2
2023/12/10 00:00:09;;;;;;;28.45;14.95;;;;;;;;;;5055771;28;20044;-66
2023/12/10 00:02:37;;;;;;;31.77;16.13;;;;;;;;;;5055741;28;20166;-66
2023/12/10 00:05:05;;;;;;;29.83;14.80;;;;;;;;;;5055609;28;20045;-67
2023/12/10 00:07:32;;;;;;;30.52;14.77;;;;;;;;;;5055262;28;20041;-67
2023/12/10 00:10:00;;;;;;;27.30;14.73;;;;;;;;;;5055558;28;20048;-66
2023/12/10 00:12:27;;;;;;;27.25;14.65;;;;;;;;;;5055607;28;20380;-66
2023/12/10 00:14:55;;;;;;;30.17;14.43;;;;;;;;;;5055473;28;20044;-66
2023/12/10 00:17:23;;;;;;;29.67;14.32;;;;;;;;;;5037772;28;20088;-67
2023/12/10 00:19:51;;;;;;;28.98;14.27;;;;;;;;;;5055402;28;20214;-67
2023/12/10 00:22:19;;;;;;;29.33;14.25;;;;;;;;;;5055678;28;20395;-66
2023/12/10 00:24:47;;;;;;;27.00;14.02;;;;;;;;;;5055241;28;20098;-67
2023/12/10 00:27:15;;;;;;;28.35;15.15;;;;;;;;;;5055400;28;20065;-67
2023/12/10 00:29:42;;;;;;;27.58;15.00;;;;;;;;;;5055281;28;20037;-67
2023/12/10 00:32:10;;;;;;;28.08;14.05;;;;;;;;;;5055263;28;20124;-67
2023/12/10 00:34:37;;;;;;;27.48;13.48;;;;;;;;;;5054992;28;20487;-67
2023/12/10 00:37:05;;;;;;;28.38;15.02;;;;;;;;;;5055199;28;20368;-67
2023/12/10 00:39:33;;;;;;;29.35;13.90;;;;;;;;;;5055055;28;20048;-67
2023/12/10 00:42:00;;;;;;;26.05;14.25;;;;;;;;;;5055226;28;20426;-66
2023/12/10 00:44:28;;;;;;;26.65;13.52;;;;;;;;;;5054923;28;20692;-67
2023/12/10 00:46:56;;;;;;;29.23;14.10;;;;;;;;;;5054853;28;20120;-66
2023/12/10 00:49:23;;;;;;;25.90;14.00;;;;;;;;;;5054721;28;20045;-67
2023/12/10 00:51:52;;;;;;;25.30;13.23;;;;;;;;;;5037297;28;20037;-67
2023/12/10 00:54:19;;;;;;;22.50;12.38;;;;;;;;;;5054674;28;20048;-67
2023/12/10 00:56:47;;;;;;;26.80;12.70;;;;;;;;;;5054628;28;20041;-67
2023/12/10 00:59:15;;;;;;;21.17;12.40;;;;;;;;;;5054444;28;20098;-66
2023/12/10 01:01:42;;;;;;;23.15;13.02;;;;;;;;;;5053563;28;20041;-66
2023/12/10 01:04:10;;;;;;;23.05;12.75;;;;;;;;;;5054803;28;20049;-66
2023/12/10 01:06:38;;;;;;;22.98;12.68;;;;;;;;;;5036990;28;20041;-67
2023/12/10 01:09:05;;;;;;;22.98;12.38;;;;;;;;;;5054633;28;20079;-67
2023/12/10 01:11:33;;;;;;;22.02;12.63;;;;;;;;;;5054763;28;20036;-67
2023/12/10 01:14:02;;;;;;;26.48;13.90;;;;;;;;;;5054489;28;20064;-66
2023/12/10 01:16:30;;;;;;;24.50;13.40;;;;;;;;;;5054320;28;20045;-66
2023/12/10 01:18:58;;;;;;;26.92;13.90;;;;;;;;;;5054356;28;20037;-66
2023/12/10 01:21:25;;;;;;;27.65;13.38;;;;;;;;;;5054244;28;20048;-66
2023/12/10 01:23:56;;;;;;;26.55;14.77;;;;;;;;;;5054235;28;20076;-66
2023/12/10 01:26:23;;;;;;;26.35;14.57;;;;;;;;;;5054202;28;20087;-67
2023/12/10 01:28:51;;;;;;;31.48;15.35;;;;;;;;;;5054272;28;20040;-67
2023/12/10 01:31:19;;;;;;;27.75;15.48;;;;;;;;;;5054015;28;20033;-66
2023/12/10 01:33:46;;;;;;;29.38;14.57;;;;;;;;;;5054080;28;20124;-66
2023/12/10 01:36:22;;;;;;;28.02;14.68;;;;;;;;;;5036029;28;20045;-67
2023/12/10 01:38:50;;;;;;;26.08;13.73;;;;;;;;;;5054001;28;21064;-66
2023/12/10 01:41:18;;;;;;;28.40;15.30;;;;;;;;;;5053938;28;20083;-66
2023/12/10 01:43:46;;;;;;;30.58;15.55;;;;;;;;;;5053686;28;20048;-66
2023/12/10 01:46:14;;;;;;;28.15;14.50;;;;;;;;;;5053838;28;20073;-67
2023/12/10 01:48:42;;;;;;;28.92;15.52;;;;;;;;;;5053716;28;20064;-66
2023/12/10 01:51:10;;;;;;;26.17;14.63;;;;;;;;;;5053760;28;20052;-66
2023/12/10 01:53:38;;;;;;;29.23;15.13;;;;;;;;;;5053528;28;20090;-66
2023/12/10 01:56:08;;;;;;;28.13;14.57;;;;;;;;;;5053614;28;20116;-66
2023/12/10 01:58:36;;;;;;;28.58;14.55;;;;;;;;;;5053480;28;20574;-66
2023/12/10 02:01:05;;;;;;;29.88;16.45;;;;;;;;;;5053532;28;20120;-67
2023/12/10 02:03:33;;;;;;;28.70;14.80;;;;;;;;;;5053392;28;20446;-66
2023/12/10 02:06:02;;;;;;;28.10;14.48;;;;;;;;;;5053354;28;20116;-66
2023/12/10 02:08:30;;;;;;;25.92;14.52;;;;;;;;;;5053626;28;20041;-66
2023/12/10 02:10:57;;;;;;;28.67;14.02;;;;;;;;;;5053272;28;20474;-66
2023/12/10 02:13:25;;;;;;;30.88;16.17;;;;;;;;;;5035458;28;20051;-67
2023/12/10 02:15:53;;;;;;;28.05;15.40;;;;;;;;;;5053250;28;20120;-66
2023/12/10 02:18:21;;;;;;;27.70;14.50;;;;;;;;;;5035818;28;20556;-66
2023/12/10 02:20:49;;;;;;;28.08;14.48;;;;;;;;;;5053169;28;20084;-66
2023/12/10 02:23:28;;;;;;;28.67;15.27;;;;;;;;;;5053137;28;20047;-67
2023/12/10 02:25:56;;;;;;;26.98;15.48;;;;;;;;;;5053109;28;20045;-66
2023/12/10 02:28:24;;;;;;;29.30;15.50;;;;;;;;;;5053052;28;20063;-66
2023/12/10 02:30:52;;;;;;;32.75;16.35;;;;;;;;;;5053056;28;20098;-67
2023/12/10 02:33:20;;;;;;;30.10;15.68;;;;;;;;;;5035578;28;20044;-66
2023/12/10 02:35:47;;;;;;;30.20;15.38;;;;;;;;;;5052876;28;20065;-66
2023/12/10 02:38:20;;;;;;;28.92;15.35;;;;;;;;;;5052845;28;20479;-67
2023/12/10 02:40:49;;;;;;;30.38;15.23;;;;;;;;;;5052893;28;20072;-67
2023/12/10 02:43:19;;;;;;;30.10;16.35;;;;;;;;;;5052748;28;20033;-67
2023/12/10 02:45:47;;;;;;;28.77;15.93;;;;;;;;;;5052895;28;20373;-67
2023/12/10 02:48:17;;;;;;;30.92;15.70;;;;;;;;;;5052612;28;20041;-66
2023/12/10 02:50:45;;;;;;;26.73;15.20;;;;;;;;;;5052506;28;20091;-67
2023/12/10 02:53:12;;;;;;;29.27;15.68;;;;;;;;;;5052662;28;20048;-66
2023/12/10 02:55:40;;;;;;;28.55;15.25;;;;;;;;;;5052633;28;20033;-66
2023/12/10 02:58:07;;;;;;;29.83;15.38;;;;;;;;;;5052683;28;20048;-66
2023/12/10 03:00:35;;;;;;;26.30;14.52;;;;;;;;;;5052810;28;20049;-67
2023/12/10 03:03:03;;;;;;;27.00;15.05;;;;;;;;;;5052550;28;20037;-66
2023/12/10 03:05:30;;;;;;;31.83;17.00;;;;;;;;;;5052211;28;20047;-67
2023/12/10 03:07:58;;;;;;;34.70;18.23;;;;;;;;;;5052457;28;20041;-66
2023/12/10 03:10:25;;;;;;;34.55;17.70;;;;;;;;;;5052454;28;20090;-66
2023/12/10 03:12:53;;;;;;;38.28;18.00;;;;;;;;;;5034867;28;20068;-66
2023/12/10 03:15:21;;;;;;;36.25;17.60;;;;;;;;;;5034941;28;20051;-66
2023/12/10 03:17:48;;;;;;;34.22;17.75;;;;;;;;;;5052261;28;20037;-66
2023/12/10 03:20:16;;;;;;;31.00;17.05;;;;;;;;;;5052333;28;20088;-66
2023/12/10 03:22:43;;;;;;;35.65;18.08;;;;;;;;;;5034553;28;20040;-66
2023/12/10 03:25:11;;;;;;;33.90;17.77;;;;;;;;;;5055026;28;20041;-66
2023/12/10 03:27:39;;;;;;;36.08;17.60;;;;;;;;;;5056248;28;20097;-66
2023/12/10 03:30:07;;;;;;;31.52;16.33;;;;;;;;;;5056286;28;20037;-66
2023/12/10 03:32:34;;;;;;;33.55;17.40;;;;;;;;;;5056349;28;20044;-66
2023/12/10 03:35:02;;;;;;;30.15;16.35;;;;;;;;;;5056373;28;20549;-66
2023/12/10 03:37:29;;;;;;;32.72;16.15;;;;;;;;;;5056337;28;20158;-66
2023/12/10 03:39:57;;;;;;;31.80;15.98;;;;;;;;;;5056081;28;20045;-66
2023/12/10 03:42:24;;;;;;;31.05;16.38;;;;;;;;;;5056082;28;20496;-67
2023/12/10 03:44:52;;;;;;;33.20;15.88;;;;;;;;;;5038424;28;20123;-66
2023/12/10 03:47:20;;;;;;;33.17;17.20;;;;;;;;;;5055903;28;20043;-66
2023/12/10 03:49:48;;;;;;;34.00;16.23;;;;;;;;;;5056026;28;20094;-66
2023/12/10 03:52:15;;;;;;;33.00;17.67;;;;;;;;;;5055847;28;20057;-66
2023/12/10 03:54:43;;;;;;;31.88;17.13;;;;;;;;;;5038023;28;20053;-66
2023/12/10 03:57:10;;;;;;;31.90;15.88;;;;;;;;;;5055922;28;20041;-66
2023/12/10 03:59:38;;;;;;;30.92;16.23;;;;;;;;;;5055841;28;20041;-66
2023/12/10 04:02:05;;;;;;;30.50;16.33;;;;;;;;;;5038178;28;20036;-66
2023/12/10 04:04:33;;;;;;;31.92;16.67;;;;;;;;;;5055489;28;20098;-67
2023/12/10 04:07:01;;;;;;;32.08;16.25;;;;;;;;;;5055700;28;20051;-67
2023/12/10 04:09:29;;;;;;;28.27;14.75;;;;;;;;;;5055610;28;20041;-66
2023/12/10 04:11:57;;;;;;;26.90;14.60;;;;;;;;;;5055758;28;20447;-67
2023/12/10 04:14:24;;;;;;;31.38;15.88;;;;;;;;;;5055619;28;20429;-66
2023/12/10 04:16:52;;;;;;;31.00;16.15;;;;;;;;;;5055496;28;20049;-67
2023/12/10 04:19:19;;;;;;;30.85;15.27;;;;;;;;;;5055399;28;20498;-67
2023/12/10 04:21:47;;;;;;;29.70;16.80;;;;;;;;;;5055669;28;20124;-66
2023/12/10 04:24:15;;;;;;;35.05;17.25;;;;;;;;;;5055193;28;20087;-67
2023/12/10 04:26:43;;;;;;;31.50;16.85;;;;;;;;;;5055466;28;20045;-67
2023/12/10 04:29:10;;;;;;;35.90;17.67;;;;;;;;;;5055170;28;20414;-66
2023/12/10 04:31:38;;;;;;;33.95;17.63;;;;;;;;;;5055153;28;20045;-66
2023/12/10 04:34:06;;;;;;;37.22;18.00;;;;;;;;;;5055180;28;20037;-67
2023/12/10 04:36:34;;;;;;;33.90;17.70;;;;;;;;;;5055093;28;20045;-66
2023/12/10 04:39:01;;;;;;;34.35;17.35;;;;;;;;;;5054979;28;20099;-66
2023/12/10 04:41:29;;;;;;;37.30;17.98;;;;;;;;;;5055070;28;20056;-67
2023/12/10 04:43:56;;;;;;;36.55;17.67;;;;;;;;;;5055032;28;20043;-67
2023/12/10 04:46:24;;;;;;;34.78;17.27;;;;;;;;;;5054729;28;20041;-67
2023/12/10 04:48:52;;;;;;;31.40;17.38;;;;;;;;;;5054944;28;20064;-67
2023/12/10 04:51:20;;;;;;;34.35;16.08;;;;;;;;;;5054951;28;20498;-67
2023/12/10 04:53:47;;;;;;;30.58;15.52;;;;;;;;;;5046879;28;20052;-67
2023/12/10 04:56:15;;;;;;;33.38;15.77;;;;;;;;;;5053494;28;20045;-67
2023/12/10 04:58:42;;;;;;;32.88;16.33;;;;;;;;;;5054493;28;20052;-67
2023/12/10 05:01:10;;;;;;;30.85;16.45;;;;;;;;;;5034502;28;20072;-67
2023/12/10 05:03:37;;;;;;;31.17;15.32;;;;;;;;;;5034705;28;20107;-67
2023/12/10 05:06:05;;;;;;;33.20;17.42;;;;;;;;;;5034417;28;20041;-68
2023/12/10 05:08:33;;;;;;;33.15;17.33;;;;;;;;;;5034639;28;20079;-67
2023/12/10 05:11:01;;;;;;;34.97;18.13;;;;;;;;;;5034679;28;20116;-67
2023/12/10 05:13:30;;;;;;;32.83;17.60;;;;;;;;;;5034365;28;20053;-67
2023/12/10 05:15:58;;;;;;;38.72;19.75;;;;;;;;;;5034435;28;20041;-66
2023/12/10 05:18:25;;;;;;;39.20;19.75;;;;;;;;;;5034530;28;20072;-66
2023/12/10 05:20:53;;;;;;;39.40;20.75;;;;;;;;;;5034198;28;20092;-67
2023/12/10 05:23:21;;;;;;;37.65;19.67;;;;;;;;;;5034406;28;20498;-67
2023/12/10 05:25:48;;;;;;;38.90;19.42;;;;;;;;;;5034320;28;20045;-67
2023/12/10 05:28:16;;;;;;;37.22;19.20;;;;;;;;;;5034006;28;20048;-67
2023/12/10 05:30:44;;;;;;;38.45;19.92;;;;;;;;;;5034297;28;20037;-67
2023/12/10 05:33:11;;;;;;;41.90;20.75;;;;;;;;;;5034127;28;20037;-67
2023/12/10 05:35:39;;;;;;;37.03;18.83;;;;;;;;;;5034196;28;20395;-67
2023/12/10 05:38:09;;;;;;;38.97;19.65;;;;;;;;;;5034107;28;20041;-67
2023/12/10 05:40:37;;;;;;;36.10;18.52;;;;;;;;;;5034070;28;20069;-67
2023/12/10 05:43:05;;;;;;;34.97;17.38;;;;;;;;;;5033991;28;20041;-66
2023/12/10 05:45:33;;;;;;;33.35;17.35;;;;;;;;;;5033658;28;20130;-66
2023/12/10 05:48:00;;;;;;;31.90;17.42;;;;;;;;;;5033283;28;20041;-66
2023/12/10 05:50:28;;;;;;;30.42;16.00;;;;;;;;;;5033839;28;20466;-65
2023/12/10 05:52:55;;;;;;;33.95;17.95;;;;;;;;;;5033676;28;20084;-66
2023/12/10 05:55:23;;;;;;;34.08;17.83;;;;;;;;;;5033591;28;20112;-66
2023/12/10 05:57:51;;;;;;;33.45;17.50;;;;;;;;;;5033543;28;20041;-66
2023/12/10 06:00:18;;;;;;;33.17;17.05;;;;;;;;;;5015815;28;20045;-66
2023/12/10 06:02:46;;;;;;;31.58;16.67;;;;;;;;;;5016122;28;20042;-66
2023/12/10 06:05:13;;;;;;;28.60;15.25;;;;;;;;;;5033239;28;20522;-66
2023/12/10 06:07:41;;;;;;;30.63;14.98;;;;;;;;;;5033484;28;20491;-66
2023/12/10 06:10:09;;;;;;;30.52;15.40;;;;;;;;;;5033425;28;20045;-66
2023/12/10 06:12:37;;;;;;;32.42;16.50;;;;;;;;;;5033321;28;20044;-66
2023/12/10 06:15:05;;;;;;;28.42;16.00;;;;;;;;;;5033300;28;20045;-66
2023/12/10 06:17:32;;;;;;;33.03;16.90;;;;;;;;;;5033126;28;20046;-66
2023/12/10 06:20:00;;;;;;;32.53;17.15;;;;;;;;;;5033097;28;20112;-66
2023/12/10 06:22:27;;;;;;;33.08;17.17;;;;;;;;;;5033086;28;20048;-67
2023/12/10 06:24:56;;;;;;;34.47;18.73;;;;;;;;;;5033159;28;20033;-67
2023/12/10 06:27:23;;;;;;;33.05;18.73;;;;;;;;;;5033155;28;20436;-66
2023/12/10 06:29:51;;;;;;;33.05;19.05;;;;;;;;;;5033282;28;20408;-66
2023/12/10 06:32:18;;;;;;;32.83;18.92;;;;;;;;;;5032981;28;20045;-66
2023/12/10 06:34:46;;;;;;;24.95;15.27;;;;;;;;;;5033027;28;20108;-66
2023/12/10 06:37:14;;;;;;;32.13;19.75;;;;;;;;;;5032952;28;20048;-66
2023/12/10 06:39:41;;;;;;;26.35;15.98;;;;;;;;;;5032819;28;20045;-66
2023/12/10 06:42:09;;;;;;;21.55;12.75;;;;;;;;;;5015504;28;20399;-66
2023/12/10 06:44:36;;;;;;;24.05;14.07;;;;;;;;;;5032790;28;20483;-66
2023/12/10 06:47:04;;;;;;;24.23;14.55;;;;;;;;;;5032771;28;20041;-67
2023/12/10 06:49:32;;;;;;;27.88;14.95;;;;;;;;;;5032574;28;20101;-66
2023/12/10 06:51:59;;;;;;;24.35;14.80;;;;;;;;;;5032773;28;20072;-66
2023/12/10 06:54:27;;;;;;;16.95;9.93;;;;;;;;;;5032691;28;20046;-66
2023/12/10 06:56:54;;;;;;;21.33;12.52;;;;;;;;;;5014860;28;20038;-66
2023/12/10 06:59:22;;;;;;;17.25;10.52;;;;;;;;;;5031649;28;20096;-66
2023/12/10 07:01:50;;;;;;;18.73;10.77;;;;;;;;;;5032559;28;20036;-66
2023/12/10 07:04:17;;;;;;;18.10;11.73;;;;;;;;;;5041193;28;20123;-66
2023/12/10 07:06:45;;;;;;;20.83;12.02;;;;;;;;;;5052014;28;20048;-66
2023/12/10 07:09:13;;;;;;;20.50;11.18;;;;;;;;;;5052359;28;20399;-66
2023/12/10 07:11:40;;;;;;;20.35;11.98;;;;;;;;;;5052325;28;20068;-66
2023/12/10 07:14:08;;;;;;;21.75;13.00;;;;;;;;;;5053324;28;20065;-66
2023/12/10 07:16:35;;;;;;;20.08;11.52;;;;;;;;;;5052253;28;20512;-66
2023/12/10 07:19:03;;;;;;;19.35;10.90;;;;;;;;;;5034694;28;20497;-66
2023/12/10 07:21:31;;;;;;;17.27;10.15;;;;;;;;;;5051899;28;20454;-66
2023/12/10 07:23:58;;;;;;;16.33;9.38;;;;;;;;;;5051790;28;20045;-66
2023/12/10 07:26:26;;;;;;;18.33;9.85;;;;;;;;;;5052289;28;20048;-68
2023/12/10 07:28:53;;;;;;;19.55;10.40;;;;;;;;;;5051800;28;20041;-65
2023/12/10 07:31:21;;;;;;;19.33;11.02;;;;;;;;;;5034165;28;20128;-65
2023/12/10 07:33:49;;;;;;;16.88;9.00;;;;;;;;;;5050597;28;20033;-65
2023/12/10 07:36:17;;;;;;;15.15;8.68;;;;;;;;;;5051813;28;20053;-67
2023/12/10 07:38:44;;;;;;;18.15;10.55;;;;;;;;;;5051411;28;20041;-66
2023/12/10 07:41:13;;;;;;;20.80;11.63;;;;;;;;;;5051496;28;20037;-66
2023/12/10 07:43:40;;;;;;;22.48;13.55;;;;;;;;;;5050642;28;20040;-66
2023/12/10 07:46:08;;;;;;;16.95;9.65;;;;;;;;;;5051116;28;20398;-66
2023/12/10 07:48:35;;;;;;;15.80;9.55;;;;;;;;;;5050750;28;20521;-66
2023/12/10 07:51:03;;;;;;;16.70;9.90;;;;;;;;;;5051543;28;20480;-66
2023/12/10 07:53:31;;;;;;;15.18;8.88;;;;;;;;;;5051050;28;20560;-67
2023/12/10 07:55:58;;;;;;;15.93;9.50;;;;;;;;;;5051694;28;20115;-65
2023/12/10 07:58:26;;;;;;;18.30;10.85;;;;;;;;;;5051416;28;20111;-65
2023/12/10 08:00:53;;;;;;;16.52;9.68;;;;;;;;;;5051679;28;20063;-66
2023/12/10 08:03:22;;;;;;;16.55;9.60;;;;;;;;;;5033841;28;20471;-66
2023/12/10 08:05:50;;;;;;;13.88;9.27;;;;;;;;;;5051883;28;20036;-66
2023/12/10 08:08:17;;;;;;;17.30;9.85;;;;;;;;;;5051760;28;20037;-66
2023/12/10 08:10:46;;;;;;;14.55;8.85;;;;;;;;;;5045787;28;20572;-67
2023/12/10 08:13:14;;;;;;;16.35;8.73;;;;;;;;;;5045791;28;20053;-66
2023/12/10 08:15:42;;;;;;;22.98;10.85;;;;;;;;;;5048745;28;20273;-67
2023/12/10 08:18:09;;;;;;;14.75;9.40;;;;;;;;;;5048290;28;20040;-66
2023/12/10 08:20:37;;;;;;;17.17;10.25;;;;;;;;;;5049578;28;20037;-66
2023/12/10 08:23:05;;;;;;;18.50;10.48;;;;;;;;;;5032008;28;20075;-66
2023/12/10 08:25:32;;;;;;;18.27;9.85;;;;;;;;;;5049282;28;20426;-67
2023/12/10 08:28:00;;;;;;;15.98;9.90;;;;;;;;;;5049573;28;20095;-66
2023/12/10 08:30:28;;;;;;;14.95;8.52;;;;;;;;;;5031498;28;20107;-65
2023/12/10 08:32:56;;;;;;;16.75;9.93;;;;;;;;;;5049149;28;20067;-65
2023/12/10 08:35:23;;;;;;;16.38;9.32;;;;;;;;;;5049084;28;20041;-65
2023/12/10 08:37:51;;;;;;;15.40;9.00;;;;;;;;;;5049901;28;20041;-65
2023/12/10 08:40:19;;;;;;;16.35;9.68;;;;;;;;;;5049540;28;20037;-66
2023/12/10 08:42:47;;;;;;;23.25;13.98;;;;;;;;;;5049682;28;20430;-66
2023/12/10 08:45:14;;;;;;;20.13;12.13;;;;;;;;;;5049222;28;20444;-65
2023/12/10 08:47:42;;;;;;;18.92;10.88;;;;;;;;;;5031308;28;20041;-66
2023/12/10 08:50:10;;;;;;;14.02;9.20;;;;;;;;;;5049677;28;20132;-66
2023/12/10 08:52:37;;;;;;;12.02;7.57;;;;;;;;;;5049096;28;20536;-66
2023/12/10 08:55:05;;;;;;;18.73;9.50;;;;;;;;;;5049577;28;20049;-65
2023/12/10 08:57:33;;;;;;;17.80;9.82;;;;;;;;;;5030558;28;20095;-65
2023/12/10 09:00:01;;;;;;;15.38;10.35;;;;;;;;;;5039034;28;20045;-65
2023/12/10 09:02:29;;;;;;;13.48;8.27;;;;;;;;;;5049249;28;20395;-64
2023/12/10 09:04:57;;;;;;;19.85;11.60;;;;;;;;;;5048603;28;20632;-65
2023/12/10 09:07:25;;;;;;;19.35;11.32;;;;;;;;;;5047977;28;20036;-66
2023/12/10 09:09:59;;;;;;;16.83;10.88;;;;;;;;;;5048119;28;20553;-65
2023/12/10 09:12:28;;;;;;;20.52;12.77;;;;;;;;;;5048447;28;20560;-66
2023/12/10 09:14:56;;;;;;;19.33;11.95;;;;;;;;;;5048540;28;20123;-67
2023/12/10 09:17:24;;;;;;;20.15;12.27;;;;;;;;;;5048927;28;20037;-66
2023/12/10 09:19:52;;;;;;;16.48;10.23;;;;;;;;;;5034372;28;20103;-66
2023/12/10 09:22:19;;;;;;;16.65;10.00;;;;;;;;;;5047907;28;20064;-64
2023/12/10 09:24:51;;;;;;;18.17;11.13;;;;;;;;;;5048635;28;20507;-64
2023/12/10 09:27:18;;;;;;;20.10;12.15;;;;;;;;;;5048703;28;20040;-64
2023/12/10 09:29:46;;;;;;;24.48;14.00;;;;;;;;;;5049055;28;20131;-65
2023/12/10 09:32:16;;;;;;;26.38;15.45;;;;;;;;;;5048682;28;20443;-66
2023/12/10 09:34:44;;;;;;;19.73;12.40;;;;;;;;;;5048586;28;20067;-65
2023/12/10 09:37:14;;;;;;;23.13;12.98;;;;;;;;;;5048566;28;20048;-65
2023/12/10 09:39:41;;;;;;;28.27;17.15;;;;;;;;;;5047856;28;20491;-65
2023/12/10 09:42:09;;;;;;;37.28;20.27;;;;;;;;;;5029997;28;20495;-65
2023/12/10 09:44:37;;;;;;;53.88;27.13;;;;;;;;;;5048300;28;20036;-66
2023/12/10 09:47:08;;;;;;;41.97;22.95;;;;;;;;;;5047567;28;20446;-66
2023/12/10 09:49:37;;;;;;;25.42;15.23;;;;;;;;;;5048296;28;20091;-66
2023/12/10 09:52:09;;;;;;;23.00;13.40;;;;;;;;;;5048407;28;20052;-66
2023/12/10 09:54:40;;;;;;;27.60;16.27;;;;;;;;;;5028391;28;20111;-66
2023/12/10 09:57:11;;;;;;;29.85;16.33;;;;;;;;;;5010452;28;20034;-66
2023/12/10 09:59:39;;;;;;;18.55;10.57;;;;;;;;;;5027787;28;20125;-66
2023/12/10 10:02:10;;;;;;;25.73;14.85;;;;;;;;;;5010574;28;20113;-65
2023/12/10 10:04:40;;;;;;;21.58;12.32;;;;;;;;;;5027920;28;20411;-65
2023/12/10 10:07:08;;;;;;;20.35;11.20;;;;;;;;;;5027922;28;20045;-66
2023/12/10 10:09:36;;;;;;;21.88;12.32;;;;;;;;;;5028115;28;20042;-66
2023/12/10 10:12:05;;;;;;;24.70;14.50;;;;;;;;;;5027844;28;20053;-66
2023/12/10 10:14:33;;;;;;;21.25;12.50;;;;;;;;;;5028066;28;20463;-66
2023/12/10 10:17:00;;;;;;;20.85;12.20;;;;;;;;;;5028050;28;20431;-66
2023/12/10 10:19:28;;;;;;;19.50;11.77;;;;;;;;;;5016968;28;20038;-66
2023/12/10 10:21:56;;;;;;;24.77;14.55;;;;;;;;;;5025512;28;20073;-67
2023/12/10 10:24:23;;;;;;;26.77;14.50;;;;;;;;;;5027550;28;20585;-66
2023/12/10 10:26:54;;;;;;;20.17;12.30;;;;;;;;;;5020241;28;20060;-67
2023/12/10 10:29:25;;;;;;;16.58;9.95;;;;;;;;;;5026727;28;20080;-67
2023/12/10 10:31:57;;;;;;;19.88;11.38;;;;;;;;;;5026751;28;20527;-67
2023/12/10 10:34:25;;;;;;;18.98;11.35;;;;;;;;;;5026498;28;20046;-67
2023/12/10 10:36:53;;;;;;;21.13;12.15;;;;;;;;;;5027658;28;20049;-67
2023/12/10 10:39:20;;;;;;;32.08;19.40;;;;;;;;;;5027583;28;20108;-67
2023/12/10 10:41:49;;;;;;;34.30;18.92;;;;;;;;;;5027538;28;20069;-67
2023/12/10 10:44:17;;;;;;;21.35;12.55;;;;;;;;;;5027046;28;20033;-67
2023/12/10 10:46:45;;;;;;;26.05;15.15;;;;;;;;;;5026947;28;20144;-67
2023/12/10 10:49:14;;;;;;;21.05;11.98;;;;;;;;;;5027231;28;20038;-66
2023/12/10 10:51:42;;;;;;;20.52;13.00;;;;;;;;;;5027000;28;20565;-66
2023/12/10 10:54:10;;;;;;;21.50;12.25;;;;;;;;;;5043076;28;20057;-65
2023/12/10 10:56:37;;;;;;;19.95;12.25;;;;;;;;;;5046896;28;20497;-64
2023/12/10 10:59:25;;;;;;;21.48;12.23;;;;;;;;;;5046786;28;20037;-65
2023/12/10 11:01:53;;;;;;;19.33;12.48;;;;;;;;;;5047249;28;20060;-65
2023/12/10 11:04:21;;;;;;;25.27;14.68;;;;;;;;;;5046705;28;20037;-65
2023/12/10 11:06:51;;;;;;;22.38;12.88;;;;;;;;;;5043743;28;20044;-65
2023/12/10 11:09:18;;;;;;;17.27;12.23;;;;;;;;;;5034331;28;20049;-65
2023/12/10 11:11:46;;;;;;;18.95;12.05;;;;;;;;;;5016976;28;20041;-65
2023/12/10 11:14:20;;;;;;;20.70;12.90;;;;;;;;;;5042684;28;20036;-65
2023/12/10 11:16:57;;;;;;;21.77;12.65;;;;;;;;;;5044777;28;20044;-65
2023/12/10 11:19:25;;;;;;;25.00;14.60;;;;;;;;;;5040545;28;20065;-66
2023/12/10 11:21:53;;;;;;;24.38;14.98;;;;;;;;;;5036392;28;20049;-67
2023/12/10 11:24:21;;;;;;;20.58;12.40;;;;;;;;;;5049078;28;20095;-66
2023/12/10 11:26:48;;;;;;;19.15;11.70;;;;;;;;;;5027719;28;20411;-66
2023/12/10 11:29:16;;;;;;;21.63;12.68;;;;;;;;;;5039120;28;20037;-66
2023/12/10 11:31:44;;;;;;;20.42;12.90;;;;;;;;;;5039143;28;20044;-70
2023/12/10 11:34:12;;;;;;;22.73;13.52;;;;;;;;;;5034858;28;20471;-66
2023/12/10 11:36:45;;;;;;;23.85;13.77;;;;;;;;;;5042215;28;20029;-66
2023/12/10 11:39:14;;;;;;;21.75;12.48;;;;;;;;;;5041581;28;21058;-66
2023/12/10 11:41:43;;;;;;;19.52;12.70;;;;;;;;;;5040898;28;20045;-66
2023/12/10 11:44:26;;;;;;;19.27;11.30;;;;;;;;;;5043284;28;20060;-66
2023/12/10 11:46:53;;;;;;;19.02;11.80;;;;;;;;;;5037794;28;20037;-66
2023/12/10 11:49:25;;;;;;;24.65;14.85;;;;;;;;;;5046902;28;20135;-66
2023/12/10 11:51:53;;;;;;;18.83;12.23;;;;;;;;;;5042646;28;20037;-66
2023/12/10 11:54:21;;;;;;;21.88;12.85;;;;;;;;;;5050215;28;20053;-66
2023/12/10 11:56:48;;;;;;;18.17;12.00;;;;;;;;;;5055139;28;20056;-66
2023/12/10 11:59:16;;;;;;;20.70;12.98;;;;;;;;;;5055920;28;20040;-66
2023/12/10 12:01:46;;;;;;;21.67;12.50;;;;;;;;;;5055836;28;20033;-65
2023/12/10 12:04:15;;;;;;;29.00;15.23;;;;;;;;;;5038091;28;20041;-65
2023/12/10 12:06:43;;;;;;;19.23;12.02;;;;;;;;;;5055739;28;20114;-66
2023/12/10 12:09:15;;;;;;;19.08;12.15;;;;;;;;;;5037772;28;20049;-66
2023/12/10 12:11:42;;;;;;;18.75;11.27;;;;;;;;;;5055611;28;20079;-66
2023/12/10 12:14:16;;;;;;;18.55;11.70;;;;;;;;;;5055457;28;20040;-66
2023/12/10 12:16:44;;;;;;;18.45;11.35;;;;;;;;;;5037888;28;20053;-66
2023/12/10 12:19:11;;;;;;;20.00;11.13;;;;;;;;;;5055644;28;20116;-66
2023/12/10 12:21:39;;;;;;;20.73;12.57;;;;;;;;;;5055456;28;20154;-66
2023/12/10 12:24:07;;;;;;;17.92;11.55;;;;;;;;;;5055651;28;20044;-66
2023/12/10 12:26:37;;;;;;;18.85;12.48;;;;;;;;;;5055470;28;20087;-66
2023/12/10 12:29:05;;;;;;;17.23;11.55;;;;;;;;;;5055342;28;20120;-66
2023/12/10 12:31:32;;;;;;;20.00;12.75;;;;;;;;;;5055263;28;20099;-66
2023/12/10 12:34:00;;;;;;;19.83;13.15;;;;;;;;;;5055263;28;20036;-66
2023/12/10 12:36:28;;;;;;;21.25;12.25;;;;;;;;;;5055015;28;20095;-66
2023/12/10 12:38:55;;;;;;;21.50;12.60;;;;;;;;;;5055210;28;20151;-66
2023/12/10 12:41:23;;;;;;;22.77;13.02;;;;;;;;;;5055041;28;20045;-66
2023/12/10 12:43:51;;;;;;;17.55;10.95;;;;;;;;;;5055026;28;20068;-66
2023/12/10 12:46:18;;;;;;;23.60;14.23;;;;;;;;;;5054920;28;20033;-65
2023/12/10 12:48:46;;;;;;;21.73;13.45;;;;;;;;;;5037102;28;20536;-65
2023/12/10 12:51:14;;;;;;;24.42;14.18;;;;;;;;;;5054958;28;20048;-66
2023/12/10 12:53:42;;;;;;;18.27;11.95;;;;;;;;;;5054674;28;20052;-65
2023/12/10 12:56:29;;;;;;;21.10;12.57;;;;;;;;;;5053486;28;20047;-66
2023/12/10 12:58:57;;;;;;;22.17;13.90;;;;;;;;;;5054812;28;20123;-66
2023/12/10 13:01:24;;;;;;;22.50;13.18;;;;;;;;;;5054732;28;20045;-66
2023/12/10 13:03:53;;;;;;;21.08;11.77;;;;;;;;;;5054763;28;20116;-66
2023/12/10 13:06:21;;;;;;;18.45;11.93;;;;;;;;;;5054564;28;20049;-66
2023/12/10 13:08:49;;;;;;;20.80;11.60;;;;;;;;;;5054622;28;20521;-65
2023/12/10 13:11:17;;;;;;;20.73;12.05;;;;;;;;;;5054410;28;20036;-66
2023/12/10 13:13:44;;;;;;;20.50;13.25;;;;;;;;;;5054360;28;20483;-66
2023/12/10 13:16:12;;;;;;;20.88;12.52;;;;;;;;;;5053088;28;20043;-66
2023/12/10 13:18:40;;;;;;;22.23;13.40;;;;;;;;;;5041179;28;20280;-67
2023/12/10 13:21:07;;;;;;;23.65;12.98;;;;;;;;;;5042322;28;20045;-66
2023/12/10 13:23:36;;;;;;;19.38;10.85;;;;;;;;;;5037407;28;20483;-65
2023/12/10 13:26:04;;;;;;;16.63;10.55;;;;;;;;;;5012573;28;20398;-66
2023/12/10 13:28:32;;;;;;;17.58;11.48;;;;;;;;;;5043131;28;20696;-66
2023/12/10 13:30:59;;;;;;;19.02;11.38;;;;;;;;;;5029378;28;20071;-65
2023/12/10 13:33:28;;;;;;;17.90;11.07;;;;;;;;;;5052742;28;20056;-66
2023/12/10 13:35:56;;;;;;;17.88;11.65;;;;;;;;;;5051562;28;20041;-66
2023/12/10 13:38:24;;;;;;;22.08;12.43;;;;;;;;;;5046108;28;20124;-66
2023/12/10 13:40:51;;;;;;;19.88;11.68;;;;;;;;;;5034924;28;20049;-66
2023/12/10 13:43:19;;;;;;;19.40;10.73;;;;;;;;;;5039895;28;20042;-67
2023/12/10 13:45:46;;;;;;;17.38;10.55;;;;;;;;;;5053452;28;20774;-66
2023/12/10 13:48:14;;;;;;;18.05;10.45;;;;;;;;;;5044869;28;20037;-66
2023/12/10 13:50:42;;;;;;;17.88;11.13;;;;;;;;;;5051853;28;20119;-67
2023/12/10 13:53:10;;;;;;;16.55;10.40;;;;;;;;;;5053643;28;20827;-66
2023/12/10 13:55:37;;;;;;;19.40;11.10;;;;;;;;;;5053983;28;20110;-67
2023/12/10 13:58:05;;;;;;;17.63;10.65;;;;;;;;;;5028966;28;20575;-67
2023/12/10 14:00:33;;;;;;;17.33;11.00;;;;;;;;;;5015984;28;20041;-66
2023/12/10 14:03:01;;;;;;;18.35;11.13;;;;;;;;;;5033761;28;20045;-66
2023/12/10 14:05:29;;;;;;;19.92;11.93;;;;;;;;;;5042679;28;20418;-67
2023/12/10 14:07:57;;;;;;;21.90;12.68;;;;;;;;;;5051538;28;20048;-67
2023/12/10 14:10:24;;;;;;;20.63;12.55;;;;;;;;;;5035242;28;20453;-67
2023/12/10 14:12:54;;;;;;;19.17;12.05;;;;;;;;;;5035306;28;20056;-67
2023/12/10 14:15:21;;;;;;;20.90;11.95;;;;;;;;;;5053119;28;20045;-67
2023/12/10 14:17:49;;;;;;;23.15;13.30;;;;;;;;;;5053391;28;20144;-66
2023/12/10 14:20:17;;;;;;;20.65;12.95;;;;;;;;;;5053114;28;20065;-67
2023/12/10 14:22:47;;;;;;;20.17;12.75;;;;;;;;;;5035754;28;20131;-66